Main page
METAR-TAF:

METAR-TAF

Airports :

Haikou Meilan International Airport

Haikou, China

latitude: 19-56-05N, longitude: 110-27-32E, elevation: 23 m

Current weather observation

The report was made 39 minutes ago, at 03:00 UTC
Wind 10 kt from the East
Temperature 23°C
Humidity 83%
Pressure 1020 hPa
Visibility 10 km or more
Broken clouds at a height of 1000 ft
Broken clouds at a height of 2600 ft

METAR: ZJHK 240300Z 08005MPS 9999 BKN010 BKN026 23/20 Q1020 NOSIG

Time: 11:39 (03:39 UTC)

Forecast

The report was made 6 hours and 31 minutes ago, at 21:08 UTC
Forecast valid from 24 at 00 UTC to 24 at 24 UTC
Wind 8 kt from the East
Visibility: 6000 m
Broken clouds at a height of 1000 ft
Broken clouds at a height of 2000 ft

TAF: ZJHK 232108Z 2400/2424 08004MPS 6000 BKN010 BKN020 TX24/2407Z TN21/2421Z

Weather observations and forecasts of more than 4000 airports (METAR and TAF reports).

The available stations are represented by yellow and red dots on the map.

Hover mouse over dot to see the name of the station.

Then click to see weather observations and forecasts.

To change the map : click on the green buttons with a black cross to zoom in, on the green button with a dash to zoom out, or on the green arrows for adjacent maps.


METAR-TAF: